Time;durP1;ratioP1;P1;durP2;ratioP2;P2;SDS_P1;SDS_P2;PMS_P1;PMS_P2;Temp;Humidity;BMP_temperature;BMP_pressure;BME280_temperature;BME280_humidity;BME280_pressure;Samples;Min_cycle;Max_cycle;Signal;HPM_P1;HPM_P2
2023/02/17 00:00:06;;;;;;;30.25;20.23;;;;;;;8.91;100.00;101841.84;5083604;28;20025;-79
2023/02/17 00:02:33;;;;;;;30.00;18.77;;;;;;;8.92;100.00;101842.75;5082383;28;20020;-80
2023/02/17 00:04:58;;;;;;;29.52;20.30;;;;;;;8.93;100.00;101841.88;5082499;28;20032;-80
2023/02/17 00:07:23;;;;;;;30.17;20.65;;;;;;;8.91;100.00;101836.56;5083310;28;20547;-80
2023/02/17 00:09:49;;;;;;;31.08;20.98;;;;;;;8.92;100.00;101834.84;5081206;28;20025;-80
2023/02/17 00:12:14;;;;;;;31.08;20.92;;;;;;;8.88;100.00;101832.13;5084400;28;20028;-81
2023/02/17 00:14:39;;;;;;;31.25;21.67;;;;;;;8.95;100.00;101830.53;5080923;28;20078;-81
2023/02/17 00:17:05;;;;;;;33.33;22.65;;;;;;;8.98;100.00;101827.97;5083457;28;20032;-81
2023/02/17 00:19:30;;;;;;;33.97;23.65;;;;;;;8.99;100.00;101824.47;5082136;28;20466;-80
2023/02/17 00:21:59;;;;;;;35.47;24.95;;;;;;;8.99;100.00;101827.13;5085817;28;20033;-81
2023/02/17 00:24:28;;;;;;;37.08;26.50;;;;;;;9.00;100.00;101821.00;5087407;28;20099;-80
2023/02/17 00:26:54;;;;;;;37.42;26.38;;;;;;;9.01;100.00;101812.25;5085714;28;20052;-81
2023/02/17 00:29:20;;;;;;;37.30;26.52;;;;;;;9.02;100.00;101813.13;5087907;28;20020;-80
2023/02/17 00:31:46;;;;;;;39.15;26.52;;;;;;;9.04;100.00;101814.06;5084963;28;20036;-80
2023/02/17 00:34:11;;;;;;;36.92;25.75;;;;;;;9.03;100.00;101807.00;5088076;28;20036;-81
2023/02/17 00:36:37;;;;;;;37.28;25.00;;;;;;;9.07;100.00;101801.84;5085463;28;20163;-80
2023/02/17 00:39:04;;;;;;;35.08;23.15;;;;;;;9.11;100.00;101800.16;5087005;28;20097;-81
2023/02/17 00:41:30;;;;;;;35.03;23.63;;;;;;;9.08;100.00;101802.72;5086252;28;20027;-81
2023/02/17 00:43:55;;;;;;;33.83;23.77;;;;;;;9.06;100.00;101810.59;5085874;28;20024;-81
2023/02/17 00:46:21;;;;;;;32.05;21.90;;;;;;;9.06;100.00;101794.78;5087392;28;20040;-81
2023/02/17 00:48:47;;;;;;;31.35;20.50;;;;;;;9.08;100.00;101790.41;5084437;28;20024;-81
2023/02/17 00:51:13;;;;;;;30.27;19.67;;;;;;;9.05;100.00;101795.63;5084387;28;20037;-81
2023/02/17 00:53:39;;;;;;;28.17;17.30;;;;;;;9.06;100.00;101800.06;5087217;28;20385;-81
2023/02/17 00:56:04;;;;;;;28.50;17.58;;;;;;;9.06;100.00;101786.88;5085281;28;20032;-81
2023/02/17 00:58:30;;;;;;;26.83;16.80;;;;;;;9.02;100.00;101798.19;5086113;28;20024;-81
2023/02/17 01:00:56;;;;;;;25.63;15.52;;;;;;;9.04;100.00;101788.59;5086473;28;20490;-81
2023/02/17 01:03:22;;;;;;;24.50;13.48;;;;;;;9.05;100.00;101800.03;5084648;28;20486;-82
2023/02/17 01:05:48;;;;;;;24.08;13.30;;;;;;;9.07;100.00;101793.03;5087845;28;20028;-82
2023/02/17 01:08:15;;;;;;;24.25;13.60;;;;;;;9.02;100.00;101800.81;5084043;28;20017;-82
2023/02/17 01:10:43;;;;;;;22.83;11.85;;;;;;;9.06;100.00;101799.19;5086981;28;20028;-80
2023/02/17 01:13:10;;;;;;;21.70;11.00;;;;;;;9.06;100.00;101794.78;5084611;28;20040;-81
2023/02/17 01:15:43;;;;;;;21.15;10.55;;;;;;;9.06;100.00;101794.78;5086218;28;20032;-82
2023/02/17 01:18:09;;;;;;;21.55;10.80;;;;;;;9.07;100.00;101793.03;5084267;28;20032;-81
2023/02/17 01:20:36;;;;;;;22.17;11.25;;;;;;;9.06;100.00;101800.06;5086261;28;20028;-81
2023/02/17 01:23:01;;;;;;;22.75;11.55;;;;;;;9.08;100.00;101798.34;5085313;28;20417;-81
2023/02/17 01:25:26;;;;;;;21.67;11.20;;;;;;;9.06;100.00;101800.06;5085009;28;20027;-82
2023/02/17 01:27:52;;;;;;;23.08;12.70;;;;;;;9.06;100.00;101800.06;5086643;28;20107;-81
2023/02/17 01:30:17;;;;;;;22.85;12.15;;;;;;;9.03;100.00;101799.97;5083657;28;20070;-81
2023/02/17 01:32:43;;;;;;;23.92;12.65;;;;;;;9.10;100.00;101805.41;5086499;28;20036;-81
2023/02/17 01:35:08;;;;;;;22.48;11.95;;;;;;;9.09;100.00;101793.97;5084323;28;20048;-81
2023/02/17 01:37:33;;;;;;;22.73;12.43;;;;;;;9.07;100.00;101801.84;5085643;28;20086;-81
2023/02/17 01:39:59;;;;;;;22.95;12.48;;;;;;;9.10;100.00;101794.84;5085250;28;20032;-80
2023/02/17 01:42:24;;;;;;;22.90;11.95;;;;;;;9.05;100.00;101795.63;5084679;28;20024;-80
2023/02/17 01:45:17;;;;;;;22.58;11.88;;;;;;;9.06;100.00;101792.16;5086607;28;20032;-80
2023/02/17 01:47:49;;;;;;;;;;;;;;;9.01;100.00;101788.50;5087229;28;20055;-80
2023/02/17 01:50:17;;;;;;;22.75;11.27;;;;;;;9.02;100.00;101787.63;5082984;28;19916;-80
2023/02/17 01:52:43;;;;;;;22.27;11.73;;;;;;;9.02;100.00;101778.84;5083502;28;20486;-80
2023/02/17 01:55:15;;;;;;;22.35;11.73;;;;;;;9.03;100.00;101778.00;5086218;28;20028;-80
2023/02/17 01:57:42;;;;;;;24.13;12.30;;;;;;;9.06;100.00;101778.94;5083558;28;20028;-80
2023/02/17 02:00:10;;;;;;;23.50;12.15;;;;;;;9.04;100.00;101790.31;5085918;28;20028;-80
2023/02/17 02:02:36;;;;;;;23.95;12.55;;;;;;;8.99;100.00;101792.84;5084124;28;20028;-80
2023/02/17 02:05:02;;;;;;;23.67;12.23;;;;;;;8.96;100.00;101800.66;5084966;28;20023;-80
2023/02/17 02:07:39;;;;;;;24.42;13.18;;;;;;;9.02;100.00;101805.22;5084985;28;20431;-80
2023/02/17 02:10:06;;;;;;;24.35;13.15;;;;;;;9.00;100.00;101796.34;5085435;28;20029;-79
2023/02/17 02:12:37;;;;;;;24.35;13.45;;;;;;;9.07;100.00;101795.66;5084428;28;20051;-80
2023/02/17 02:15:07;;;;;;;24.42;13.38;;;;;;;9.07;100.00;101796.56;5084789;28;20025;-79
2023/02/17 02:17:54;;;;;;;24.20;13.20;;;;;;;9.09;100.00;101791.34;5084127;28;20030;-81
2023/02/17 02:20:45;;;;;;;24.48;13.32;;;;;;;9.06;100.00;101794.78;5082918;28;20151;-80
2023/02/17 02:23:44;;;;;;;25.17;13.50;;;;;;;9.07;100.00;101807.13;5082844;28;20123;-81
2023/02/17 02:26:17;;;;;;;24.67;13.70;;;;;;;9.07;100.00;101786.03;5085487;28;20036;-80
2023/02/17 02:28:54;;;;;;;25.30;14.05;;;;;;;9.03;100.00;101783.28;5082506;28;20021;-80
2023/02/17 02:31:38;;;;;;;25.13;13.50;;;;;;;9.02;100.00;101781.47;5082680;28;20037;-81
2023/02/17 02:34:29;;;;;;;25.90;14.32;;;;;;;9.06;100.00;101786.88;5083801;28;20031;-82
2023/02/17 02:37:11;;;;;;;26.05;13.93;;;;;;;9.01;100.00;101762.13;5083126;28;20028;-81
2023/02/17 02:39:41;;;;;;;25.30;13.90;;;;;;;8.97;100.00;101762.91;5083334;28;20062;-81
2023/02/17 02:42:13;;;;;;;26.77;14.32;;;;;;;8.99;100.00;101766.47;5084926;28;20091;-81
2023/02/17 02:44:38;;;;;;;25.48;13.93;;;;;;;8.95;100.00;101743.50;5081967;28;20097;-80
2023/02/17 02:47:25;;;;;;;25.40;13.45;;;;;;;8.95;100.00;101739.97;5084269;28;20464;-81
2023/02/17 02:49:50;;;;;;;24.95;13.50;;;;;;;8.95;100.00;101735.59;5082064;28;20429;-81
2023/02/17 02:52:42;;;;;;;24.70;12.57;;;;;;;8.95;100.00;101743.50;5086021;28;20036;-82
2023/02/17 02:55:41;;;;;;;25.42;14.02;;;;;;;8.99;100.00;101723.38;5084754;28;20032;-81
2023/02/17 02:58:19;;;;;;;26.85;13.98;;;;;;;9.08;100.00;101707.78;5084885;28;20118;-82
2023/02/17 03:00:47;;;;;;;25.52;13.57;;;;;;;9.01;100.00;101711.13;5081870;28;20112;-82
2023/02/17 03:03:21;;;;;;;27.13;13.85;;;;;;;9.04;100.00;101711.19;5085464;28;20035;-81
2023/02/17 03:06:10;;;;;;;25.38;13.40;;;;;;;9.03;100.00;101698.88;5082008;28;20032;-82
2023/02/17 03:08:52;;;;;;;25.17;13.85;;;;;;;9.01;100.00;101695.28;5084275;28;20548;-83
2023/02/17 03:11:33;;;;;;;25.45;13.48;;;;;;;9.01;100.00;101700.56;5081872;28;20028;-81
2023/02/17 03:14:05;;;;;;;26.08;13.15;;;;;;;8.96;100.00;101697.81;5083284;28;20490;-80
2023/02/17 03:16:31;;;;;;;23.60;11.80;;;;;;;9.01;100.00;101695.28;5083376;28;20035;-81
2023/02/17 03:18:57;;;;;;;23.67;11.55;;;;;;;8.98;100.00;101700.50;5082587;28;20071;-81
2023/02/17 03:21:25;;;;;;;22.90;10.85;;;;;;;9.02;100.00;101697.97;5084906;28;20055;-81
2023/02/17 03:23:50;;;;;;;21.92;10.20;;;;;;;9.04;100.00;101706.81;5081601;28;20033;-81
2023/02/17 03:26:15;;;;;;;21.95;10.55;;;;;;;9.06;100.00;101699.81;5084969;28;20077;-80
2023/02/17 03:28:41;;;;;;;21.80;9.70;;;;;;;9.03;100.00;101715.59;5081896;28;20115;-84
2023/02/17 03:31:06;;;;;;;20.88;8.82;;;;;;;9.07;100.00;101714.81;5083626;28;20112;-81
2023/02/17 03:33:31;;;;;;;21.17;9.35;;;;;;;9.06;100.00;101712.13;5081928;28;20117;-81
2023/02/17 03:35:57;;;;;;;20.95;9.25;;;;;;;9.08;100.00;101708.66;5082257;28;20025;-81
2023/02/17 03:38:23;;;;;;;21.10;9.50;;;;;;;9.07;100.00;101709.53;5084174;28;20387;-80
2023/02/17 03:40:48;;;;;;;21.08;9.38;;;;;;;9.04;100.00;101703.28;5081431;28;20036;-79
2023/02/17 03:43:15;;;;;;;21.00;9.10;;;;;;;9.04;100.00;101698.91;5084494;28;20016;-79
2023/02/17 03:45:40;;;;;;;21.17;8.98;;;;;;;9.11;100.00;101706.97;5081666;28;20114;-79
2023/02/17 03:48:05;;;;;;;20.73;8.80;;;;;;;9.07;100.00;101690.16;5083532;28;20441;-79
2023/02/17 03:50:31;;;;;;;20.50;8.50;;;;;;;9.08;100.00;101694.59;5082716;28;20524;-80
2023/02/17 03:52:56;;;;;;;20.10;8.25;;;;;;;9.04;100.00;101685.72;5082291;28;20036;-80
2023/02/17 03:55:21;;;;;;;20.23;8.38;;;;;;;9.08;100.00;101684.91;5083927;28;20032;-80
2023/02/17 03:57:47;;;;;;;19.80;7.97;;;;;;;9.14;100.00;101683.28;5080960;28;20028;-80
2023/02/17 04:00:12;;;;;;;20.52;8.27;;;;;;;9.07;100.00;101698.06;5084103;28;20051;-80
2023/02/17 04:02:38;;;;;;;19.95;7.95;;;;;;;9.06;100.00;101689.28;5081955;28;20028;-79
2023/02/17 04:05:04;;;;;;;20.60;8.45;;;;;;;9.08;100.00;101707.78;5082870;28;20032;-79
2023/02/17 04:07:29;;;;;;;19.50;7.97;;;;;;;9.08;100.00;101702.50;5082917;28;20020;-79
2023/02/17 04:09:54;;;;;;;19.80;7.82;;;;;;;9.07;100.00;101705.97;5080487;28;20467;-80
2023/02/17 04:12:20;;;;;;;20.27;7.65;;;;;;;9.10;100.00;101706.09;5084310;28;20539;-80
2023/02/17 04:14:45;;;;;;;19.88;7.45;;;;;;;9.12;100.00;101704.38;5079724;28;20039;-79
2023/02/17 04:17:10;;;;;;;18.90;7.10;;;;;;;9.13;100.00;101705.25;5082374;28;20028;-79
2023/02/17 04:19:36;;;;;;;19.95;7.18;;;;;;;9.06;100.00;101702.47;5081853;28;20032;-79
2023/02/17 04:22:01;;;;;;;19.67;7.20;;;;;;;9.11;100.00;101706.97;5082541;28;20025;-79
2023/02/17 04:24:27;;;;;;;19.08;7.40;;;;;;;9.11;100.00;101702.56;5081930;28;20505;-80
2023/02/17 04:26:53;;;;;;;19.65;7.38;;;;;;;9.16;100.00;101715.88;5081017;28;20017;-80
2023/02/17 04:29:18;;;;;;;20.33;7.80;;;;;;;9.11;100.00;101707.84;5084643;28;20051;-79
2023/02/17 04:31:43;;;;;;;20.00;7.57;;;;;;;9.16;100.00;101715.88;5080766;28;20028;-79
2023/02/17 04:34:09;;;;;;;20.00;7.60;;;;;;;9.17;100.00;101707.09;5083277;28;21130;-80
2023/02/17 04:36:34;;;;;;;18.98;7.63;;;;;;;9.13;100.00;101707.88;5082163;28;20043;-80
2023/02/17 04:38:59;;;;;;;19.50;7.20;;;;;;;9.13;100.00;101715.78;5080726;28;20024;-81
2023/02/17 04:41:25;;;;;;;20.70;7.70;;;;;;;9.13;100.00;101708.78;5083275;28;20055;-80
2023/02/17 04:43:50;;;;;;;19.40;7.30;;;;;;;9.16;100.00;101724.69;5080725;28;20032;-82
2023/02/17 04:46:15;;;;;;;19.90;7.20;;;;;;;9.17;100.00;101715.03;5084165;28;20028;-81
2023/02/17 04:48:41;;;;;;;19.40;7.45;;;;;;;9.17;100.00;101720.28;5081278;28;20068;-80
2023/02/17 04:51:07;;;;;;;19.35;7.45;;;;;;;9.15;100.00;101707.06;5082704;28;20125;-81
2023/02/17 04:53:33;;;;;;;19.80;7.97;;;;;;;9.14;100.00;101717.59;5082296;28;20036;-82
2023/02/17 04:55:58;;;;;;;20.52;8.02;;;;;;;9.17;100.00;101717.66;5081709;28;20032;-82
2023/02/17 04:58:23;;;;;;;19.52;7.50;;;;;;;9.13;100.00;101727.25;5083216;28;20479;-82
2023/02/17 05:00:50;;;;;;;19.27;7.45;;;;;;;9.18;100.00;101724.72;5080461;28;20028;-83
2023/02/17 05:03:16;;;;;;;19.35;7.60;;;;;;;9.17;100.00;101718.53;5082770;28;20111;-82
2023/02/17 05:05:41;;;;;;;19.55;7.68;;;;;;;9.14;100.00;101699.13;5080631;28;20104;-82
2023/02/17 05:08:07;;;;;;;20.08;7.97;;;;;;;9.08;100.00;101703.38;5084645;28;20123;-83
2023/02/17 05:10:32;;;;;;;19.52;7.88;;;;;;;9.03;100.00;101705.03;5086052;28;20031;-81
2023/02/17 05:12:58;;;;;;;19.77;7.63;;;;;;;9.00;100.00;101690.88;5085130;28;20032;-81
2023/02/17 05:15:23;;;;;;;19.95;7.28;;;;;;;8.97;100.00;101675.88;5086905;28;20074;-81
2023/02/17 05:17:48;;;;;;;19.17;7.60;;;;;;;9.04;100.00;101695.34;5084141;28;20066;-80
2023/02/17 05:20:14;;;;;;;19.85;7.78;;;;;;;8.96;100.00;101681.13;5087145;28;20454;-81
2023/02/17 05:22:39;;;;;;;19.65;7.97;;;;;;;8.80;100.00;101693.03;5084605;28;20038;-80
2023/02/17 05:25:05;;;;;;;19.70;7.57;;;;;;;8.81;100.00;101702.69;5085949;28;20033;-81
2023/02/17 05:27:31;;;;;;;20.27;7.95;;;;;;;8.63;100.00;101682.94;5085597;28;20032;-82
2023/02/17 05:29:57;;;;;;;21.20;8.10;;;;;;;8.68;100.00;101696.25;5084678;28;20031;-82
2023/02/17 05:32:22;;;;;;;21.10;8.50;;;;;;;8.64;100.00;101690.00;5086758;28;20103;-81
2023/02/17 05:34:48;;;;;;;20.95;8.85;;;;;;;8.58;100.00;101692.47;5083608;28;20086;-81
2023/02/17 05:37:13;;;;;;;21.05;8.48;;;;;;;8.60;100.00;101689.88;5086868;28;20071;-80
2023/02/17 05:39:39;;;;;;;21.48;8.90;;;;;;;8.55;100.00;101692.41;5084401;28;20028;-81
2023/02/17 05:42:04;;;;;;;20.58;8.63;;;;;;;8.58;100.00;101710.00;5084123;28;20475;-81
2023/02/17 05:44:29;;;;;;;21.15;8.95;;;;;;;8.58;100.00;101708.28;5085749;28;20475;-81
2023/02/17 05:46:55;;;;;;;20.88;9.30;;;;;;;8.66;100.00;101714.63;5084024;28;20044;-81
2023/02/17 05:49:20;;;;;;;21.45;9.00;;;;;;;8.65;100.00;101720.78;5085637;28;20531;-81
2023/02/17 05:51:45;;;;;;;20.73;8.23;;;;;;;8.69;100.00;101717.38;5085620;28;20138;-81
2023/02/17 05:54:11;;;;;;;20.40;8.30;;;;;;;8.70;100.00;101705.97;5083762;28;20031;-81
2023/02/17 05:56:36;;;;;;;22.05;8.68;;;;;;;8.79;100.00;101699.16;5085230;28;20032;-81
2023/02/17 05:59:02;;;;;;;21.42;8.70;;;;;;;8.81;100.00;101698.34;5085291;28;20568;-81
2023/02/17 06:01:27;;;;;;;20.88;8.80;;;;;;;8.82;100.00;101704.50;5084276;28;20378;-81
2023/02/17 06:03:53;;;;;;;21.27;8.90;;;;;;;8.81;100.00;101702.69;5086528;28;20020;-81
2023/02/17 06:06:18;;;;;;;21.25;8.85;;;;;;;8.79;100.00;101694.75;5083114;28;20032;-81
2023/02/17 06:08:44;;;;;;;22.25;8.85;;;;;;;8.85;100.00;101694.03;5086089;28;20470;-82
2023/02/17 06:11:09;;;;;;;21.55;8.60;;;;;;;8.87;100.00;101682.66;5083919;28;20060;-81
2023/02/17 06:13:35;;;;;;;22.38;9.07;;;;;;;8.89;100.00;101693.25;5084697;28;20039;-81
2023/02/17 06:16:00;;;;;;;22.83;9.90;;;;;;;8.83;100.00;101691.34;5084858;28;20028;-81
2023/02/17 06:18:26;;;;;;;22.85;9.55;;;;;;;8.75;100.00;101687.63;5083489;28;20020;-81
2023/02/17 06:20:55;;;;;;;22.88;9.88;;;;;;;8.75;100.00;101692.88;5086262;28;20024;-81
2023/02/17 06:23:20;;;;;;;22.98;9.73;;;;;;;8.72;100.00;101683.19;5082688;28;20025;-80
2023/02/17 06:25:45;;;;;;;22.77;10.15;;;;;;;8.76;100.00;101686.78;5082772;28;20037;-81
2023/02/17 06:28:11;;;;;;;24.45;10.75;;;;;;;8.79;100.00;101684.22;5084095;28;20062;-81
2023/02/17 06:30:36;;;;;;;22.70;10.23;;;;;;;8.81;100.00;101685.16;5082634;28;20028;-80
2023/02/17 06:33:02;;;;;;;24.20;11.27;;;;;;;8.86;100.00;101680.88;5084077;28;20078;-79
2023/02/17 06:35:27;;;;;;;24.05;11.00;;;;;;;8.88;100.00;101695.00;5083571;28;20115;-79
2023/02/17 06:37:52;;;;;;;24.10;10.45;;;;;;;8.87;100.00;101697.59;5082530;28;20111;-80
2023/02/17 06:40:18;;;;;;;23.05;10.70;;;;;;;8.93;100.00;101683.66;5086068;28;20097;-80
2023/02/17 06:42:43;;;;;;;24.55;10.55;;;;;;;8.99;100.00;101674.16;5082538;28;20051;-80
2023/02/17 06:45:09;;;;;;;24.45;10.52;;;;;;;9.06;100.00;101685.75;5084570;28;20108;-80
2023/02/17 06:47:34;;;;;;;24.42;10.85;;;;;;;9.01;100.00;101679.47;5084050;28;20060;-79
2023/02/17 06:50:00;;;;;;;24.70;11.35;;;;;;;9.02;100.00;101676.88;5083172;28;20475;-80
2023/02/17 06:52:26;;;;;;;23.60;10.65;;;;;;;9.04;100.00;101684.81;5085029;28;20136;-79
2023/02/17 06:54:51;;;;;;;23.58;11.13;;;;;;;9.05;100.00;101676.94;5082269;28;20047;-80
2023/02/17 06:57:16;;;;;;;23.90;11.15;;;;;;;9.06;100.00;101686.63;5081867;28;20036;-79
2023/02/17 06:59:42;;;;;;;24.25;11.25;;;;;;;9.07;100.00;101687.53;5087598;28;20024;-79
2023/02/17 07:02:11;;;;;;;22.52;10.63;;;;;;;9.11;100.00;101694.66;5088751;28;20056;-79
2023/02/17 07:04:37;;;;;;;24.08;10.98;;;;;;;9.14;100.00;101691.22;5091275;28;20032;-78
2023/02/17 07:07:03;;;;;;;23.20;10.43;;;;;;;9.15;100.00;101682.44;5092781;28;20072;-79
2023/02/17 07:09:29;;;;;;;23.25;10.45;;;;;;;9.15;100.00;101696.53;5092586;28;20078;-80
2023/02/17 07:11:54;;;;;;;23.13;10.65;;;;;;;9.15;100.00;101687.72;5091694;28;20438;-78
2023/02/17 07:14:20;;;;;;;23.52;10.73;;;;;;;9.19;100.00;101702.78;5074342;28;20036;-81
2023/02/17 07:16:45;;;;;;;23.27;10.50;;;;;;;9.20;100.00;101701.91;5092883;28;20498;-77
2023/02/17 07:19:10;;;;;;;23.20;10.60;;;;;;;9.22;100.00;101694.94;5093035;28;20028;-79
2023/02/17 07:21:36;;;;;;;26.33;10.93;;;;;;;9.25;100.00;101695.00;5092804;28;20031;-77
2023/02/17 07:24:01;;;;;;;23.35;10.43;;;;;;;9.28;100.00;101702.97;5092195;28;20119;-79
2023/02/17 07:26:26;;;;;;;24.13;10.07;;;;;;;9.28;100.00;101696.81;5091978;28;20039;-78
2023/02/17 07:28:52;;;;;;;22.13;9.90;;;;;;;9.33;100.00;101690.75;5092752;28;20035;-78
2023/02/17 07:31:17;;;;;;;23.55;10.20;;;;;;;9.37;100.00;101683.81;5090094;28;20440;-78
2023/02/17 07:33:44;;;;;;;22.70;9.50;;;;;;;9.30;100.00;101666.94;5092271;28;20032;-77
2023/02/17 07:36:15;;;;;;;22.42;9.68;;;;;;;9.33;100.00;101690.75;5092335;28;20057;-80
2023/02/17 07:38:41;;;;;;;22.25;9.13;;;;;;;9.34;100.00;101687.28;5092072;28;20025;-79
2023/02/17 07:41:13;;;;;;;22.48;9.15;;;;;;;9.41;100.00;101686.56;5092116;28;20432;-77
2023/02/17 07:43:40;;;;;;;21.67;8.98;;;;;;;9.42;100.00;101683.09;5091674;28;20036;-76
2023/02/17 07:46:07;;;;;;;22.58;9.57;;;;;;;9.46;100.00;101672.59;5091188;28;20027;-80
2023/02/17 07:48:33;;;;;;;21.80;9.43;;;;;;;9.46;100.00;101677.88;5092668;28;20075;-77
2023/02/17 07:51:06;;;;;;;23.08;10.18;;;;;;;9.62;100.00;101685.25;5092969;28;20044;-81
2023/02/17 07:53:31;;;;;;;22.13;9.52;;;;;;;9.59;100.00;101680.78;5091741;28;20398;-80
2023/02/17 07:55:57;;;;;;;22.35;9.98;;;;;;;9.60;100.00;101685.22;5090918;28;20027;-78
2023/02/17 07:58:22;;;;;;;21.88;9.20;;;;;;;9.65;100.00;101695.88;5091399;28;20051;-79
2023/02/17 08:00:47;;;;;;;21.17;8.88;;;;;;;9.66;100.00;101678.31;5091234;28;20143;-77
2023/02/17 08:03:13;;;;;;;21.25;9.07;;;;;;;9.74;100.00;101679.34;5090924;28;20170;-78
2023/02/17 08:05:40;;;;;;;21.55;9.13;;;;;;;9.72;100.00;101692.50;5092004;28;20089;-77
2023/02/17 08:13:34;;;;;;;21.88;8.98;;;;;;;9.70;100.00;101693.38;5091655;28;20501;-79
2023/02/17 08:16:00;;;;;;;21.58;9.23;;;;;;;9.72;100.00;101681.06;5092169;28;20036;-79
2023/02/17 08:18:25;;;;;;;21.02;9.52;;;;;;;9.76;100.00;101690.84;5092217;28;20032;-84
2023/02/17 08:20:51;;;;;;;20.65;9.07;;;;;;;9.84;100.00;101693.63;5091066;28;20040;-83
2023/02/17 08:23:19;;;;;;;20.65;8.82;;;;;;;9.85;100.00;101685.75;5091457;28;20025;-81
2023/02/17 08:25:45;;;;;;;20.73;8.35;;;;;;;9.90;100.00;101696.41;5091722;28;20585;-80
2023/02/17 08:28:11;;;;;;;20.90;9.00;;;;;;;9.89;100.00;101684.94;5091416;28;20107;-80
2023/02/17 08:30:37;;;;;;;19.90;8.63;;;;;;;9.91;100.00;101692.91;5091664;28;20030;-79
2023/02/17 08:33:03;;;;;;;21.08;8.63;;;;;;;9.94;100.00;101691.19;5090831;28;20020;-80
2023/02/17 08:35:29;;;;;;;20.65;9.20;;;;;;;9.94;100.00;101690.31;5091034;28;20039;-79
2023/02/17 08:37:55;;;;;;;20.33;8.73;;;;;;;9.98;100.00;101699.22;5091153;28;20062;-79
2023/02/17 08:40:20;;;;;;;20.08;8.82;;;;;;;9.95;100.00;101695.63;5091279;28;20024;-80
2023/02/17 08:42:45;;;;;;;20.20;8.32;;;;;;;10.00;100.00;101697.47;5092452;28;20413;-80
2023/02/17 08:45:13;;;;;;;20.02;8.43;;;;;;;10.06;100.00;101692.31;5095334;28;20158;-78
2023/02/17 08:47:39;;;;;;;20.13;9.10;;;;;;;10.08;100.00;101706.47;5095339;28;20032;-80
2023/02/17 08:50:07;;;;;;;20.45;9.30;;;;;;;10.09;100.00;101711.78;5094758;28;20106;-80
2023/02/17 08:52:33;;;;;;;20.20;8.80;;;;;;;10.18;100.00;101711.06;5088012;28;20412;-80
2023/02/17 08:54:59;;;;;;;20.88;8.95;;;;;;;10.21;100.00;101697.91;5087427;28;20039;-80
2023/02/17 08:57:25;;;;;;;20.27;8.48;;;;;;;10.28;100.00;101669.84;5085342;28;20024;-80
2023/02/17 08:59:51;;;;;;;19.73;8.13;;;;;;;10.34;100.00;101699.06;5084975;28;20036;-80
2023/02/17 09:02:16;;;;;;;20.25;8.30;;;;;;;10.38;100.00;101700.94;5085291;28;20506;-80
2023/02/17 09:04:42;;;;;;;20.60;8.55;;;;;;;10.42;100.00;101689.53;5084669;28;20060;-80
2023/02/17 09:07:12;;;;;;;20.17;8.50;;;;;;;10.52;100.00;101708.22;5087917;28;20099;-80
2023/02/17 09:09:38;;;;;;;19.90;8.50;;;;;;;10.55;100.00;101703.84;5084215;28;20066;-80
2023/02/17 09:12:03;;;;;;;19.98;8.20;;;;;;;10.60;100.00;101715.41;5087494;28;20429;-80
2023/02/17 09:14:29;;;;;;;20.65;8.77;;;;;;;10.66;100.00;101717.28;5084697;28;20060;-79
2023/02/17 09:16:55;;;;;;;19.92;8.55;;;;;;;10.71;100.00;101718.25;5086033;28;20037;-80
2023/02/17 09:19:21;;;;;;;20.00;8.45;;;;;;;10.82;100.00;101729.03;5084423;28;20360;-80
2023/02/17 09:21:47;;;;;;;20.30;8.90;;;;;;;10.77;100.00;101723.63;5085084;28;20108;-80
2023/02/17 09:24:13;;;;;;;19.42;8.30;;;;;;;10.78;100.00;101754.50;5086653;28;20030;-80
2023/02/17 09:26:39;;;;;;;19.80;8.35;;;;;;;10.77;100.00;101742.16;5083767;28;20033;-79
2023/02/17 09:29:05;;;;;;;19.30;7.78;;;;;;;10.76;100.00;101755.34;5083953;28;20063;-82
2023/02/17 09:31:30;;;;;;;19.38;8.70;;;;;;;10.75;100.00;101761.53;5086606;28;20016;-80
2023/02/17 09:33:57;;;;;;;20.15;9.48;;;;;;;10.74;100.00;101765.91;5084616;28;20105;-80
2023/02/17 09:36:25;;;;;;;20.38;9.48;;;;;;;10.78;100.00;101759.81;5085506;28;20024;-80
2023/02/17 09:38:51;;;;;;;20.38;9.52;;;;;;;10.86;100.00;101740.53;5085385;28;20035;-81
2023/02/17 09:41:19;;;;;;;20.40;9.40;;;;;;;10.88;100.00;101758.22;5084597;28;20067;-80
2023/02/17 09:43:46;;;;;;;20.50;9.70;;;;;;;10.89;100.00;101735.28;5086314;28;20112;-80
2023/02/17 09:46:20;;;;;;;20.20;9.50;;;;;;;10.96;100.00;101742.47;5084797;28;20093;-77
2023/02/17 09:48:48;;;;;;;20.02;9.25;;;;;;;10.98;100.00;101748.69;5093932;28;20054;-78
2023/02/17 09:51:32;;;;;;;20.95;9.40;;;;;;;11.03;100.00;101765.53;5092988;28;20052;-80
2023/02/17 09:54:22;;;;;;;21.25;10.27;;;;;;;10.98;100.00;101756.63;5093490;28;20046;-78
2023/02/17 09:56:50;;;;;;;21.25;10.80;;;;;;;10.97;100.00;101781.31;5094122;28;20134;-78
2023/02/17 09:59:31;;;;;;;21.27;10.65;;;;;;;10.89;100.00;101761.75;5094193;28;20024;-77
2023/02/17 10:01:57;;;;;;;20.90;11.13;;;;;;;10.91;100.00;101770.63;5091457;28;20024;-79
2023/02/17 10:04:40;;;;;;;21.67;11.90;;;;;;;10.97;100.00;101760.13;5093240;28;20042;-77
2023/02/17 10:07:15;;;;;;;21.70;11.80;;;;;;;10.96;100.00;101766.28;5091177;28;20129;-77
2023/02/17 10:09:51;;;;;;;21.05;10.77;;;;;;;10.95;100.00;101767.13;5093199;28;20065;-78
2023/02/17 10:12:24;;;;;;;21.10;11.15;;;;;;;10.95;100.00;101773.34;5094017;28;20074;-82
2023/02/17 10:15:05;;;;;;;20.88;10.82;;;;;;;11.04;100.00;101767.31;5093537;28;20028;-79
2023/02/17 10:17:39;;;;;;;21.27;11.48;;;;;;;11.14;100.00;101766.59;5092554;28;20101;-78
2023/02/17 10:20:30;;;;;;;20.65;10.93;;;;;;;11.22;100.00;101772.00;5090590;28;20073;-80
2023/02/17 10:23:03;;;;;;;21.02;11.43;;;;;;;11.23;100.00;101762.34;5091559;28;20032;-81
2023/02/17 10:25:48;;;;;;;;;;;;;;;11.38;100.00;101749.34;5094315;28;20040;-79
2023/02/17 10:28:21;;;;;;;21.00;11.13;;;;;;;11.50;100.00;101762.78;5079092;28;19918;-77
2023/02/17 10:30:53;;;;;;;;;;;;;;;11.62;100.00;101754.13;5093489;28;20402;-76
2023/02/17 10:33:33;;;;;;;22.67;12.33;;;;;;;11.73;100.00;101763.97;5093686;28;20389;-75
2023/02/17 10:36:32;;;;;;;21.52;11.13;;;;;;;11.71;100.00;101771.91;5093271;28;20045;-78
2023/02/17 10:39:27;;;;;;;21.58;11.65;;;;;;;11.57;100.00;101757.56;5091361;28;20024;-81
2023/02/17 10:41:54;;;;;;;21.35;11.30;;;;;;;11.47;100.00;101765.34;5092092;28;20085;-78
2023/02/17 10:44:23;;;;;;;21.15;11.10;;;;;;;11.41;100.00;101788.22;5093519;28;20047;-78
2023/02/17 10:46:51;;;;;;;22.00;10.77;;;;;;;11.33;100.00;101761.63;5092848;28;20086;-77
2023/02/17 10:49:27;;;;;;;21.17;10.93;;;;;;;11.30;100.00;101774.78;5092845;28;20423;-78
2023/02/17 10:51:53;;;;;;;22.00;11.63;;;;;;;11.23;100.00;101775.56;5090226;28;20040;-78
2023/02/17 10:54:34;;;;;;;20.50;10.15;;;;;;;11.23;100.00;101783.50;5093271;28;20545;-77
2023/02/17 10:57:04;;;;;;;20.52;9.73;;;;;;;11.27;100.00;101796.81;5093278;28;20416;-80
2023/02/17 10:59:38;;;;;;;20.98;9.25;;;;;;;11.33;100.00;101785.44;5092388;28;20040;-80
2023/02/17 11:02:22;;;;;;;21.45;10.68;;;;;;;11.37;100.00;101802.25;5092809;28;20086;-80
2023/02/17 11:04:50;;;;;;;20.77;10.30;;;;;;;11.36;100.00;101808.41;5088225;28;20020;-80
2023/02/17 11:07:18;;;;;;;19.98;8.85;;;;;;;11.35;100.00;101794.28;5087381;28;20056;-78
2023/02/17 11:09:55;;;;;;;20.63;9.18;;;;;;;11.34;100.00;101792.50;5082922;28;20056;-80
2023/02/17 11:12:25;;;;;;;19.40;8.05;;;;;;;11.28;100.00;101789.75;5080934;28;20052;-80
2023/02/17 11:14:53;;;;;;;19.30;8.27;;;;;;;11.30;100.00;101796.88;5085447;28;20016;-79
2023/02/17 11:17:27;;;;;;;20.00;8.20;;;;;;;11.27;100.00;101785.31;5089564;28;20127;-80
2023/02/17 11:20:20;;;;;;;19.13;8.10;;;;;;;11.24;100.00;101782.63;5083112;28;20096;-79
2023/02/17 11:22:59;;;;;;;20.15;9.43;;;;;;;11.19;100.00;101773.75;5075887;28;20115;-79